createdAt,value
2023-01-26T00:01:27.601Z,18.42
2023-01-26T00:03:55.386Z,17.67
2023-01-26T00:06:23.172Z,17.60
2023-01-26T00:08:52.158Z,19.27
2023-01-26T00:11:24.269Z,17.02
2023-01-26T00:13:51.714Z,17.85
2023-01-26T00:16:19.504Z,18.20
2023-01-26T00:18:46.647Z,18.70
2023-01-26T00:21:21.408Z,18.73
2023-01-26T00:23:49.464Z,18.33
2023-01-26T00:26:24.653Z,18.58
2023-01-26T00:28:52.492Z,19.08
2023-01-26T00:31:25.854Z,19.15
2023-01-26T00:33:56.314Z,19.27
2023-01-26T00:36:23.716Z,20.98
2023-01-26T00:38:50.855Z,18.73
2023-01-26T00:41:37.037Z,19.38
2023-01-26T00:46:31.262Z,18.85
2023-01-26T00:49:00.515Z,19.17
2023-01-26T00:51:27.952Z,20.88
2023-01-26T00:53:55.121Z,19.67
2023-01-26T00:56:22.352Z,18.63
2023-01-26T00:58:49.529Z,18.80
2023-01-26T01:01:16.630Z,19.55
2023-01-26T01:03:43.901Z,20.10
2023-01-26T01:06:11.009Z,19.30
2023-01-26T01:08:38.193Z,20.08
2023-01-26T01:11:07.759Z,19.77
2023-01-26T01:13:35.035Z,19.77
2023-01-26T01:16:06.095Z,19.50
2023-01-26T01:18:33.228Z,18.67
2023-01-26T01:21:00.375Z,18.67
2023-01-26T01:23:29.171Z,18.55
2023-01-26T01:25:57.713Z,17.27
2023-01-26T01:28:24.856Z,16.40
2023-01-26T01:30:52.134Z,17.30
2023-01-26T01:33:19.480Z,19.00
2023-01-26T01:35:57.210Z,17.92
2023-01-26T01:38:24.793Z,17.80
2023-01-26T01:40:52.509Z,18.52
2023-01-26T01:43:19.716Z,17.20
2023-01-26T01:45:48.162Z,16.50
2023-01-26T01:48:20.924Z,17.40
2023-01-26T01:50:49.300Z,16.98
2023-01-26T01:53:25.289Z,16.50
2023-01-26T01:55:58.766Z,18.17
2023-01-26T01:58:27.602Z,16.17
2023-01-26T02:00:54.901Z,15.23
2023-01-26T02:03:22.578Z,15.25
2023-01-26T02:05:56.478Z,16.75
2023-01-26T02:08:27.884Z,16.13
2023-01-26T02:10:57.419Z,16.60
2023-01-26T02:13:25.119Z,19.20
2023-01-26T02:15:52.551Z,17.77
2023-01-26T02:18:19.846Z,19.48
2023-01-26T02:20:51.083Z,17.45
2023-01-26T02:23:20.924Z,18.30
2023-01-26T02:25:53.904Z,18.80
2023-01-26T02:28:24.966Z,19.08
2023-01-26T02:30:53.195Z,18.48
2023-01-26T02:33:20.267Z,18.30
2023-01-26T02:35:47.338Z,20.13
2023-01-26T02:38:14.648Z,18.08
2023-01-26T02:40:54.086Z,19.60
2023-01-26T02:43:21.968Z,18.33
2023-01-26T02:45:49.205Z,19.55
2023-01-26T02:48:36.283Z,17.88
2023-01-26T02:51:03.999Z,19.52
2023-01-26T02:53:31.441Z,21.17
2023-01-26T02:55:58.558Z,20.10
2023-01-26T02:58:25.709Z,19.00
2023-01-26T03:00:53.165Z,18.73
2023-01-26T03:03:41.587Z,19.92
2023-01-26T03:06:10.611Z,20.05
2023-01-26T03:08:38.338Z,20.98
2023-01-26T03:11:06.899Z,19.95
2023-01-26T03:13:34.524Z,19.23
2023-01-26T03:16:06.690Z,19.65
2023-01-26T03:18:53.923Z,19.38
2023-01-26T03:21:39.849Z,18.98
2023-01-26T03:24:29.815Z,17.27
2023-01-26T03:27:15.554Z,18.08
2023-01-26T03:29:42.751Z,18.75
2023-01-26T03:32:10.109Z,19.05
2023-01-26T03:34:37.278Z,18.90
2023-01-26T03:37:04.915Z,19.92
2023-01-26T03:40:04.625Z,19.48
2023-01-26T03:42:50.413Z,19.02
2023-01-26T03:45:36.338Z,19.13
2023-01-26T03:48:30.155Z,19.27
2023-01-26T03:51:16.519Z,18.60
2023-01-26T03:54:02.561Z,19.88
2023-01-26T03:56:33.403Z,20.17
2023-01-26T03:59:08.391Z,19.50
2023-01-26T04:01:40.864Z,18.40
2023-01-26T04:04:27.182Z,18.25
2023-01-26T04:09:39.755Z,18.88
2023-01-26T04:12:07.358Z,17.83
2023-01-26T04:14:53.376Z,18.45
2023-01-26T04:17:38.650Z,17.55
2023-01-26T04:20:25.645Z,19.42
2023-01-26T04:22:52.872Z,16.98
2023-01-26T04:25:21.536Z,17.85
2023-01-26T04:27:48.664Z,17.95
2023-01-26T04:30:17.012Z,18.15
2023-01-26T04:32:51.850Z,17.27
2023-01-26T04:35:18.972Z,16.80
2023-01-26T04:37:46.103Z,16.20
2023-01-26T04:40:13.664Z,18.00
2023-01-26T04:42:41.038Z,15.98
2023-01-26T04:45:10.235Z,17.02
2023-01-26T04:47:37.374Z,17.30
2023-01-26T04:50:05.027Z,17.30
2023-01-26T04:52:32.130Z,18.77
2023-01-26T04:54:59.226Z,18.13
2023-01-26T04:57:26.397Z,18.20
2023-01-26T04:59:53.587Z,18.40
2023-01-26T05:02:20.700Z,17.70
2023-01-26T05:04:47.782Z,16.67
2023-01-26T05:07:14.883Z,17.08
2023-01-26T05:09:42.013Z,15.23
2023-01-26T05:12:27.919Z,14.07
2023-01-26T05:14:55.005Z,15.23
2023-01-26T05:17:22.116Z,14.95
2023-01-26T05:19:49.235Z,13.40
2023-01-26T05:22:16.381Z,14.80
2023-01-26T05:24:43.554Z,14.45
2023-01-26T05:27:22.532Z,14.00
2023-01-26T05:29:50.619Z,14.45
2023-01-26T05:32:18.274Z,14.57
2023-01-26T05:34:45.684Z,14.00
2023-01-26T05:37:14.788Z,16.73
2023-01-26T05:39:42.620Z,15.55
2023-01-26T05:42:11.973Z,17.38
2023-01-26T05:44:39.665Z,17.55
2023-01-26T05:47:06.745Z,18.13
2023-01-26T05:49:33.888Z,16.65
2023-01-26T05:52:01.173Z,18.38
2023-01-26T05:54:28.247Z,18.88
2023-01-26T05:56:57.424Z,19.05
2023-01-26T05:59:24.585Z,19.98
2023-01-26T06:01:51.749Z,20.17
2023-01-26T06:04:18.975Z,20.27
2023-01-26T06:06:46.152Z,19.00
2023-01-26T06:09:13.302Z,17.42
2023-01-26T06:11:40.457Z,17.92
2023-01-26T06:14:07.596Z,18.15
2023-01-26T06:16:34.871Z,17.80
2023-01-26T06:19:02.149Z,16.58
2023-01-26T06:21:29.538Z,19.27
2023-01-26T06:23:56.791Z,16.38
2023-01-26T06:26:27.097Z,17.63
2023-01-26T06:28:54.485Z,15.85
2023-01-26T06:31:24.198Z,17.85
2023-01-26T06:33:51.480Z,16.73
2023-01-26T06:36:18.590Z,15.77
2023-01-26T06:38:47.969Z,15.68
2023-01-26T06:41:15.602Z,15.23
2023-01-26T06:43:47.693Z,16.33
2023-01-26T06:46:15.984Z,16.58
2023-01-26T06:48:43.252Z,14.50
2023-01-26T06:51:16.167Z,13.52
2023-01-26T06:53:47.817Z,14.70
2023-01-26T06:56:16.067Z,14.73
2023-01-26T06:58:43.175Z,14.65
2023-01-26T07:01:15.018Z,16.67
2023-01-26T07:03:42.183Z,15.98
2023-01-26T07:06:13.291Z,17.20
2023-01-26T07:08:40.700Z,15.93
2023-01-26T07:11:09.194Z,16.33
2023-01-26T07:13:36.436Z,16.77
2023-01-26T07:16:05.479Z,15.60
2023-01-26T07:18:33.491Z,15.95
2023-01-26T07:21:02.675Z,15.52
2023-01-26T07:23:30.651Z,15.52
2023-01-26T07:26:03.985Z,15.52
2023-01-26T07:28:31.240Z,15.57
2023-01-26T07:30:58.721Z,15.40
2023-01-26T07:33:26.267Z,15.88
2023-01-26T07:35:54.025Z,15.93
2023-01-26T07:38:21.258Z,17.33
2023-01-26T07:40:48.399Z,15.00
2023-01-26T07:43:16.441Z,15.35
2023-01-26T07:45:47.664Z,15.98
2023-01-26T07:48:15.703Z,14.75
2023-01-26T07:50:43.653Z,16.00
2023-01-26T07:53:12.852Z,15.38
2023-01-26T07:55:39.960Z,14.55
2023-01-26T07:58:07.086Z,15.27
2023-01-26T08:00:34.237Z,15.73
2023-01-26T08:03:01.397Z,15.52
2023-01-26T08:05:28.545Z,14.85
2023-01-26T08:07:59.602Z,14.65
2023-01-26T08:10:28.126Z,14.25
2023-01-26T08:12:55.328Z,13.65
2023-01-26T08:15:22.462Z,12.57
2023-01-26T08:17:49.591Z,12.77
2023-01-26T08:20:16.919Z,12.43
2023-01-26T08:22:44.078Z,14.40
2023-01-26T08:25:11.189Z,13.10
2023-01-26T08:27:38.304Z,12.77
2023-01-26T08:30:06.635Z,14.38
2023-01-26T08:32:33.872Z,13.63
2023-01-26T08:35:01.047Z,13.05
2023-01-26T08:37:28.165Z,13.52
2023-01-26T08:39:55.299Z,13.82
2023-01-26T08:42:22.917Z,13.27
2023-01-26T08:44:50.119Z,13.70
2023-01-26T08:47:17.252Z,13.80
2023-01-26T08:49:44.345Z,12.63
2023-01-26T08:52:11.455Z,12.90
2023-01-26T08:54:38.579Z,13.85
2023-01-26T08:57:06.194Z,13.00
2023-01-26T08:59:33.384Z,12.90
2023-01-26T09:02:00.556Z,13.07
2023-01-26T09:04:27.744Z,13.40
2023-01-26T09:06:54.846Z,14.40
2023-01-26T09:09:22.024Z,13.80
2023-01-26T09:11:49.170Z,12.93
2023-01-26T09:14:16.569Z,14.00
2023-01-26T09:16:43.718Z,13.82
2023-01-26T09:19:10.960Z,13.38
2023-01-26T09:21:38.140Z,14.98
2023-01-26T09:24:05.649Z,13.55
2023-01-26T09:26:32.826Z,13.18
2023-01-26T09:28:59.985Z,13.07
2023-01-26T09:31:27.260Z,14.15
2023-01-26T09:33:54.511Z,13.50
2023-01-26T09:36:21.630Z,12.80
2023-01-26T09:38:48.940Z,12.38
2023-01-26T09:41:40.932Z,13.30
2023-01-26T09:44:16.599Z,15.15
2023-01-26T09:47:07.151Z,12.43
2023-01-26T09:50:32.981Z,13.18
2023-01-26T09:53:12.981Z,11.95
2023-01-26T09:55:40.743Z,12.23
2023-01-26T09:58:35.761Z,14.05
2023-01-26T10:01:03.983Z,14.25
2023-01-26T10:03:54.526Z,14.77
2023-01-26T10:06:29.043Z,13.43
2023-01-26T10:08:58.764Z,13.60
2023-01-26T10:11:41.776Z,13.32
2023-01-26T10:14:21.733Z,13.27
2023-01-26T10:16:49.888Z,14.80
2023-01-26T10:19:26.778Z,14.52
2023-01-26T10:21:55.781Z,13.52
2023-01-26T10:24:24.177Z,14.43
2023-01-26T10:26:53.308Z,14.02
2023-01-26T10:29:21.188Z,14.15
2023-01-26T10:31:48.402Z,13.93
2023-01-26T10:34:17.792Z,13.65
2023-01-26T10:36:46.429Z,14.68
2023-01-26T10:39:15.745Z,13.35
2023-01-26T10:42:03.448Z,14.25
2023-01-26T10:44:35.173Z,14.23
2023-01-26T10:47:17.299Z,14.95
2023-01-26T10:49:44.587Z,13.50
2023-01-26T10:52:18.612Z,14.90
2023-01-26T10:54:46.413Z,13.90
2023-01-26T10:57:29.048Z,15.10
2023-01-26T11:00:00.685Z,12.98
2023-01-26T11:02:30.403Z,13.68
2023-01-26T11:05:03.710Z,14.63
2023-01-26T11:07:42.135Z,15.52
2023-01-26T11:10:25.801Z,12.95
2023-01-26T11:13:06.798Z,14.23
2023-01-26T11:15:39.467Z,14.80
2023-01-26T11:18:24.435Z,15.02
2023-01-26T11:21:08.885Z,14.45
2023-01-26T11:23:57.828Z,13.63
2023-01-26T11:26:27.908Z,14.38
2023-01-26T11:29:17.996Z,14.57
2023-01-26T11:32:03.991Z,15.63
2023-01-26T11:34:43.775Z,14.10
2023-01-26T11:37:32.828Z,14.88
2023-01-26T11:40:40.905Z,14.13
2023-01-26T11:43:35.900Z,14.70
2023-01-26T11:46:21.098Z,13.50
2023-01-26T11:49:14.432Z,14.02
2023-01-26T11:52:28.412Z,11.60
2023-01-26T11:55:42.951Z,10.60
2023-01-26T11:58:31.018Z,11.80
2023-01-26T12:01:00.869Z,11.32
2023-01-26T12:03:35.972Z,11.25
2023-01-26T12:06:07.359Z,10.38
2023-01-26T12:09:18.857Z,10.45
2023-01-26T12:12:05.611Z,11.25
2023-01-26T12:14:45.295Z,11.93
2023-01-26T12:17:25.331Z,10.43
2023-01-26T12:20:14.336Z,10.63
2023-01-26T12:22:45.525Z,11.35
2023-01-26T12:25:35.983Z,10.98
2023-01-26T12:28:25.563Z,11.32
2023-01-26T12:30:55.663Z,10.93
2023-01-26T12:33:23.191Z,11.18
2023-01-26T12:36:19.332Z,10.52
2023-01-26T12:38:55.669Z,9.95
2023-01-26T12:41:32.909Z,11.20
2023-01-26T12:44:30.906Z,12.60
2023-01-26T12:47:03.883Z,13.07
2023-01-26T12:49:35.775Z,13.13
2023-01-26T12:52:22.479Z,12.38
2023-01-26T12:54:57.952Z,13.05
2023-01-26T12:57:35.602Z,13.38
2023-01-26T13:00:09.445Z,12.77
2023-01-26T13:02:37.996Z,13.10
2023-01-26T13:05:07.755Z,12.82
2023-01-26T13:07:39.497Z,11.10
2023-01-26T13:10:21.149Z,12.10
2023-01-26T13:12:55.309Z,11.55
2023-01-26T13:15:32.368Z,11.57
2023-01-26T13:18:00.903Z,11.40
2023-01-26T13:20:39.957Z,10.05
2023-01-26T13:23:45.834Z,8.88
2023-01-26T13:26:19.972Z,10.57
2023-01-26T13:28:48.971Z,9.43
2023-01-26T13:31:33.213Z,8.85
2023-01-26T13:34:02.956Z,10.55
2023-01-26T13:36:35.086Z,10.05
2023-01-26T13:39:31.276Z,11.23
2023-01-26T13:41:58.470Z,10.55
2023-01-26T13:44:41.418Z,9.73
2023-01-26T13:47:13.958Z,10.60
2023-01-26T13:49:42.819Z,10.38
2023-01-26T13:52:19.895Z,10.63
2023-01-26T13:54:48.539Z,11.40
2023-01-26T13:57:30.347Z,11.30
2023-01-26T14:00:00.148Z,11.38
2023-01-26T14:02:32.387Z,11.05
2023-01-26T14:05:01.367Z,11.85
2023-01-26T14:07:32.816Z,11.82
2023-01-26T14:10:01.864Z,11.35
2023-01-26T14:12:41.810Z,12.25
2023-01-26T14:15:29.537Z,11.50
2023-01-26T14:18:01.356Z,11.65
2023-01-26T14:20:29.881Z,12.38
2023-01-26T14:23:13.746Z,11.20
2023-01-26T14:25:47.464Z,12.82
2023-01-26T14:28:21.357Z,11.75
2023-01-26T14:31:00.392Z,12.27
2023-01-26T14:33:27.860Z,11.80
2023-01-26T14:35:59.650Z,12.48
2023-01-26T14:38:32.911Z,12.48
2023-01-26T14:41:01.001Z,11.55
2023-01-26T14:43:28.319Z,13.25
2023-01-26T14:46:17.287Z,12.25
2023-01-26T14:49:00.134Z,12.77
2023-01-26T14:51:27.609Z,13.40
2023-01-26T14:54:04.832Z,13.25
2023-01-26T14:56:35.904Z,12.32
2023-01-26T14:59:04.205Z,12.48
2023-01-26T15:01:31.887Z,12.55
2023-01-26T15:04:04.136Z,11.98
2023-01-26T15:06:31.825Z,12.52
2023-01-26T15:09:18.447Z,13.40
2023-01-26T15:12:11.616Z,13.07
2023-01-26T15:15:00.242Z,12.05
2023-01-26T15:17:38.196Z,13.52
2023-01-26T15:20:23.351Z,13.10
2023-01-26T15:22:52.217Z,13.98
2023-01-26T15:25:27.834Z,13.52
2023-01-26T15:27:58.921Z,15.15
2023-01-26T15:30:31.435Z,14.73
2023-01-26T15:32:58.948Z,15.95
2023-01-26T15:35:35.755Z,16.67
2023-01-26T15:38:11.747Z,18.00
2023-01-26T15:43:15.067Z,18.92
2023-01-26T15:45:51.006Z,19.15
2023-01-26T15:48:18.260Z,18.55
2023-01-26T15:50:47.217Z,19.45
2023-01-26T15:53:15.709Z,17.92
2023-01-26T15:55:44.263Z,19.05
2023-01-26T15:58:11.548Z,17.95
2023-01-26T16:00:38.946Z,18.52
2023-01-26T16:03:11.046Z,18.13
2023-01-26T16:05:38.181Z,17.85
2023-01-26T16:08:05.424Z,19.08
2023-01-26T16:10:33.264Z,18.75
2023-01-26T16:13:00.623Z,17.42
2023-01-26T16:15:36.907Z,18.73
2023-01-26T16:18:04.187Z,19.90
2023-01-26T16:20:31.492Z,18.25
2023-01-26T16:22:58.655Z,18.20
2023-01-26T16:25:28.448Z,18.20
2023-01-26T16:27:56.879Z,16.83
2023-01-26T16:30:25.028Z,16.48
2023-01-26T16:32:52.671Z,16.25
2023-01-26T16:35:22.349Z,14.70
2023-01-26T16:37:49.646Z,15.55
2023-01-26T16:40:18.467Z,15.23
2023-01-26T16:42:51.082Z,17.02
2023-01-26T16:45:23.859Z,15.63
2023-01-26T16:47:54.881Z,14.38
2023-01-26T16:50:23.772Z,15.10
2023-01-26T16:52:50.910Z,15.23
2023-01-26T16:55:18.430Z,14.13
2023-01-26T16:57:46.740Z,16.63
2023-01-26T17:00:16.196Z,17.27
2023-01-26T17:02:44.758Z,19.05
2023-01-26T17:05:17.240Z,17.52
2023-01-26T17:07:46.465Z,17.25
2023-01-26T17:10:15.287Z,17.80
2023-01-26T17:12:42.519Z,15.57
2023-01-26T17:15:11.847Z,16.83
2023-01-26T17:17:39.329Z,16.30
2023-01-26T17:20:18.470Z,15.32
2023-01-26T17:22:47.321Z,15.68
2023-01-26T17:25:16.870Z,15.27
2023-01-26T17:27:46.448Z,15.63
2023-01-26T17:30:13.849Z,16.67
2023-01-26T17:32:42.104Z,15.32
2023-01-26T17:35:09.600Z,15.68
2023-01-26T17:37:38.031Z,16.35
2023-01-26T17:40:06.668Z,12.77
2023-01-26T17:42:35.036Z,14.43
2023-01-26T17:45:04.074Z,14.98
2023-01-26T17:47:34.654Z,14.02
2023-01-26T17:50:02.195Z,15.35
2023-01-26T17:52:31.291Z,15.18
2023-01-26T17:54:58.960Z,15.52
2023-01-26T17:57:26.113Z,15.55
2023-01-26T17:59:53.392Z,15.45
2023-01-26T18:02:20.702Z,15.63
2023-01-26T18:04:48.704Z,18.17
2023-01-26T18:07:15.885Z,17.33
2023-01-26T18:09:43.108Z,16.67
2023-01-26T18:12:10.265Z,15.95
2023-01-26T18:14:37.383Z,16.58
2023-01-26T18:17:04.670Z,16.42
2023-01-26T18:19:31.852Z,16.73
2023-01-26T18:21:59.043Z,15.88
2023-01-26T18:24:26.518Z,16.33
2023-01-26T18:26:53.680Z,17.50
2023-01-26T18:29:20.840Z,16.80
2023-01-26T18:31:48.265Z,16.50
2023-01-26T18:34:15.465Z,16.65
2023-01-26T18:36:42.732Z,17.15
2023-01-26T18:39:12.913Z,15.68
2023-01-26T18:41:40.842Z,16.48
2023-01-26T18:44:08.244Z,17.75
2023-01-26T18:46:35.720Z,17.60
2023-01-26T18:49:03.676Z,18.02
2023-01-26T18:51:33.420Z,17.83
2023-01-26T18:54:00.914Z,17.80
2023-01-26T18:56:28.214Z,17.38
2023-01-26T18:58:55.352Z,16.50
2023-01-26T19:01:23.021Z,16.73
2023-01-26T19:03:55.155Z,17.58
2023-01-26T19:06:24.018Z,18.85
2023-01-26T19:08:58.382Z,18.80
2023-01-26T19:11:27.745Z,17.80
2023-01-26T19:13:55.429Z,17.02
2023-01-26T19:16:23.019Z,18.83
2023-01-26T19:18:50.747Z,18.23
2023-01-26T19:21:24.119Z,19.95
2023-01-26T19:23:52.664Z,18.50
2023-01-26T19:26:22.787Z,18.17
2023-01-26T19:28:51.007Z,17.38
2023-01-26T19:31:19.370Z,17.65
2023-01-26T19:33:58.192Z,16.75
2023-01-26T19:36:27.374Z,16.90
2023-01-26T19:38:54.546Z,16.05
2023-01-26T19:41:22.907Z,14.52
2023-01-26T19:43:50.469Z,15.93
2023-01-26T19:46:17.887Z,17.48
2023-01-26T19:48:46.129Z,17.65
2023-01-26T19:51:17.828Z,17.45
2023-01-26T19:53:47.166Z,17.17
2023-01-26T19:56:18.107Z,17.40
2023-01-26T19:58:59.835Z,17.75
2023-01-26T20:01:28.248Z,17.60
2023-01-26T20:04:07.530Z,16.75
2023-01-26T20:06:36.213Z,16.90
2023-01-26T20:09:04.688Z,17.05
2023-01-26T20:11:32.066Z,16.33
2023-01-26T20:14:00.919Z,17.90
2023-01-26T20:16:28.942Z,16.63
2023-01-26T20:18:57.136Z,16.63
2023-01-26T20:21:24.794Z,16.67
2023-01-26T20:23:55.222Z,17.17
2023-01-26T20:26:24.109Z,16.80
2023-01-26T20:28:52.021Z,16.75
2023-01-26T20:31:21.926Z,16.90
2023-01-26T20:33:50.119Z,16.17
2023-01-26T20:36:19.273Z,16.02
2023-01-26T20:38:48.316Z,16.58
2023-01-26T20:41:21.753Z,16.10
2023-01-26T20:44:03.736Z,17.48
2023-01-26T20:46:37.779Z,17.65
2023-01-26T20:49:06.035Z,17.30
2023-01-26T20:51:35.707Z,16.95
2023-01-26T20:54:06.161Z,16.67
2023-01-26T20:56:33.922Z,16.23
2023-01-26T20:59:01.348Z,17.13
2023-01-26T21:01:28.633Z,16.25
2023-01-26T21:03:55.997Z,17.70
2023-01-26T21:06:24.147Z,16.65
2023-01-26T21:08:54.002Z,15.95
2023-01-26T21:11:22.009Z,17.50
2023-01-26T21:13:49.244Z,16.02
2023-01-26T21:16:16.973Z,16.10
2023-01-26T21:18:45.334Z,16.65
2023-01-26T21:21:14.961Z,16.23
2023-01-26T21:23:42.105Z,15.65
2023-01-26T21:26:18.731Z,16.25
2023-01-26T21:28:56.847Z,15.98
2023-01-26T21:31:25.286Z,16.45
2023-01-26T21:33:53.142Z,15.45
2023-01-26T21:36:23.136Z,16.02
2023-01-26T21:38:52.206Z,15.38
2023-01-26T21:41:42.307Z,16.20
2023-01-26T21:44:13.793Z,15.40
2023-01-26T21:46:41.492Z,15.13
2023-01-26T21:49:09.709Z,15.85
2023-01-26T21:51:54.996Z,14.82
2023-01-26T21:54:22.151Z,15.33
2023-01-26T21:56:49.856Z,15.32
2023-01-26T21:59:17.640Z,14.57
2023-01-26T22:01:45.951Z,14.13
2023-01-26T22:04:18.875Z,14.88
2023-01-26T22:06:46.098Z,14.85
2023-01-26T22:09:14.744Z,14.90
2023-01-26T22:11:42.233Z,15.23
2023-01-26T22:14:17.899Z,14.38
2023-01-26T22:19:12.556Z,14.15
2023-01-26T22:21:40.163Z,13.20
2023-01-26T22:24:09.949Z,14.13
2023-01-26T22:26:39.208Z,14.93
2023-01-26T22:29:07.356Z,13.48
2023-01-26T22:31:34.561Z,13.52
2023-01-26T22:34:02.040Z,13.10
2023-01-26T22:36:29.661Z,11.95
2023-01-26T22:38:59.156Z,12.35
2023-01-26T22:41:28.251Z,12.93
2023-01-26T22:43:57.806Z,11.80
2023-01-26T22:46:26.321Z,12.68
2023-01-26T22:48:53.500Z,13.63
2023-01-26T22:51:25.878Z,14.10
2023-01-26T22:53:53.819Z,12.55
2023-01-26T22:56:21.710Z,13.27
2023-01-26T22:58:59.409Z,13.70
2023-01-26T23:01:31.938Z,13.70
2023-01-26T23:04:00.104Z,12.85
2023-01-26T23:06:27.792Z,13.32
2023-01-26T23:08:55.346Z,13.57
2023-01-26T23:11:25.118Z,13.60
2023-01-26T23:13:53.821Z,13.40
2023-01-26T23:16:23.443Z,14.05
2023-01-26T23:18:54.872Z,15.10
2023-01-26T23:21:22.649Z,14.95
2023-01-26T23:23:49.975Z,16.20
2023-01-26T23:26:17.403Z,14.13
2023-01-26T23:28:45.051Z,15.82
2023-01-26T23:31:14.459Z,14.20
2023-01-26T23:33:41.669Z,13.75
2023-01-26T23:36:11.502Z,13.70
2023-01-26T23:38:38.737Z,13.95
2023-01-26T23:41:06.466Z,13.43
2023-01-26T23:43:33.590Z,12.95
2023-01-26T23:46:00.895Z,12.18
2023-01-26T23:48:28.029Z,12.68
2023-01-26T23:50:56.613Z,12.48
2023-01-26T23:53:24.053Z,12.35
2023-01-26T23:55:51.852Z,12.45
2023-01-26T23:58:19.552Z,12.57
